sensor_id;sensor_type;location;lat;lon;timestamp;pressure;altitude;pressure_sealevel;temperature;humidity
37852;BME280;23691;52.486;4.650;2023-11-19T00:02:12;100658.19;;;14.46;88.82
37852;BME280;23691;52.486;4.650;2023-11-19T00:04:44;100644.75;;;14.46;88.64
37852;BME280;23691;52.486;4.650;2023-11-19T00:07:12;100644.75;;;14.46;88.41
37852;BME280;23691;52.486;4.650;2023-11-19T00:09:41;100635.00;;;14.45;88.37
37852;BME280;23691;52.486;4.650;2023-11-19T00:12:11;100629.00;;;14.43;88.46
37852;BME280;23691;52.486;4.650;2023-11-19T00:14:36;100629.81;;;14.44;88.34
37852;BME280;23691;52.486;4.650;2023-11-19T00:17:05;100633.16;;;14.46;88.31
37852;BME280;23691;52.486;4.650;2023-11-19T00:19:30;100635.19;;;14.44;88.15
37852;BME280;23691;52.486;4.650;2023-11-19T00:21:55;100638.06;;;14.42;88.41
37852;BME280;23691;52.486;4.650;2023-11-19T00:24:21;100640.97;;;14.41;88.13
37852;BME280;23691;52.486;4.650;2023-11-19T00:26:52;100638.69;;;14.37;88.41
37852;BME280;23691;52.486;4.650;2023-11-19T00:29:17;100644.50;;;14.41;88.14
37852;BME280;23691;52.486;4.650;2023-11-19T00:31:45;100629.38;;;14.40;88.05
37852;BME280;23691;52.486;4.650;2023-11-19T00:34:10;100629.97;;;14.35;88.05
37852;BME280;23691;52.486;4.650;2023-11-19T00:36:36;100633.66;;;14.34;87.84
37852;BME280;23691;52.486;4.650;2023-11-19T00:39:01;100642.59;;;14.35;87.73
37852;BME280;23691;52.486;4.650;2023-11-19T00:41:27;100639.03;;;14.34;87.57
37852;BME280;23691;52.486;4.650;2023-11-19T00:43:52;100632.66;;;14.35;87.37
37852;BME280;23691;52.486;4.650;2023-11-19T00:46:17;100635.75;;;14.32;87.52
37852;BME280;23691;52.486;4.650;2023-11-19T00:48:45;100635.34;;;14.35;87.42
37852;BME280;23691;52.486;4.650;2023-11-19T00:51:12;100628.03;;;14.29;87.28
37852;BME280;23691;52.486;4.650;2023-11-19T00:53:38;100623.88;;;14.27;87.16
37852;BME280;23691;52.486;4.650;2023-11-19T00:56:03;100632.78;;;14.27;87.17
37852;BME280;23691;52.486;4.650;2023-11-19T00:58:28;100622.22;;;14.26;87.21
37852;BME280;23691;52.486;4.650;2023-11-19T01:00:54;100616.84;;;14.26;87.04
37852;BME280;23691;52.486;4.650;2023-11-19T01:03:19;100616.84;;;14.26;87.17
37852;BME280;23691;52.486;4.650;2023-11-19T01:05:45;100592.81;;;14.24;86.98
37852;BME280;23691;52.486;4.650;2023-11-19T01:08:12;100593.63;;;14.25;86.90
37852;BME280;23691;52.486;4.650;2023-11-19T01:10:37;100597.78;;;14.27;86.75
37852;BME280;23691;52.486;4.650;2023-11-19T01:13:05;100613.09;;;14.27;86.93
37852;BME280;23691;52.486;4.650;2023-11-19T01:15:39;100580.19;;;14.25;86.86
37852;BME280;23691;52.486;4.650;2023-11-19T01:18:06;100595.56;;;14.31;86.69
37852;BME280;23691;52.486;4.650;2023-11-19T01:20:34;100584.78;;;14.31;86.65
37852;BME280;23691;52.486;4.650;2023-11-19T01:23:00;100578.13;;;14.27;86.91
37852;BME280;23691;52.486;4.650;2023-11-19T01:25:25;100578.13;;;14.27;86.76
37852;BME280;23691;52.486;4.650;2023-11-19T01:27:50;100581.84;;;14.26;86.99
37852;BME280;23691;52.486;4.650;2023-11-19T01:30:16;100593.06;;;14.29;86.90
37852;BME280;23691;52.486;4.650;2023-11-19T01:32:41;100601.81;;;14.38;86.38
37852;BME280;23691;52.486;4.650;2023-11-19T01:35:07;100601.13;;;14.29;86.55
37852;BME280;23691;52.486;4.650;2023-11-19T01:37:33;100621.97;;;14.21;86.91
37852;BME280;23691;52.486;4.650;2023-11-19T01:40:02;100600.63;;;14.19;86.96
37852;BME280;23691;52.486;4.650;2023-11-19T01:42:36;100601.09;;;14.23;87.00
37852;BME280;23691;52.486;4.650;2023-11-19T01:45:01;100590.50;;;14.21;86.86
37852;BME280;23691;52.486;4.650;2023-11-19T01:47:27;100607.06;;;14.18;87.21
37852;BME280;23691;52.486;4.650;2023-11-19T01:49:53;100606.59;;;14.14;87.02
37852;BME280;23691;52.486;4.650;2023-11-19T01:52:19;100606.41;;;14.16;87.01
37852;BME280;23691;52.486;4.650;2023-11-19T01:54:45;100610.09;;;14.15;87.04
37852;BME280;23691;52.486;4.650;2023-11-19T01:57:11;100617.34;;;14.14;87.08
37852;BME280;23691;52.486;4.650;2023-11-19T01:59:39;100610.97;;;14.15;87.06
37852;BME280;23691;52.486;4.650;2023-11-19T02:02:05;100608.28;;;14.15;86.88
37852;BME280;23691;52.486;4.650;2023-11-19T02:04:31;100613.00;;;14.13;86.74
37852;BME280;23691;52.486;4.650;2023-11-19T02:06:57;100617.75;;;14.11;86.99
37852;BME280;23691;52.486;4.650;2023-11-19T02:09:23;100607.69;;;14.20;86.75
37852;BME280;23691;52.486;4.650;2023-11-19T02:11:48;100596.53;;;14.23;86.09
37852;BME280;23691;52.486;4.650;2023-11-19T02:14:16;100607.09;;;14.25;86.04
37852;BME280;23691;52.486;4.650;2023-11-19T02:16:45;100603.56;;;14.24;85.76
37852;BME280;23691;52.486;4.650;2023-11-19T02:19:10;100609.78;;;14.25;85.94
37852;BME280;23691;52.486;4.650;2023-11-19T02:21:39;100608.94;;;14.24;85.82
37852;BME280;23691;52.486;4.650;2023-11-19T02:24:05;100602.75;;;14.24;85.68
37852;BME280;23691;52.486;4.650;2023-11-19T02:29:12;100608.13;;;14.24;85.53
37852;BME280;23691;52.486;4.650;2023-11-19T02:31:38;100611.38;;;14.19;85.69
37852;BME280;23691;52.486;4.650;2023-11-19T02:34:03;100605.38;;;14.17;85.44
37852;BME280;23691;52.486;4.650;2023-11-19T02:36:29;100589.44;;;14.15;85.55
37852;BME280;23691;52.486;4.650;2023-11-19T02:38:57;100596.94;;;14.20;85.07
37852;BME280;23691;52.486;4.650;2023-11-19T02:41:23;100600.81;;;14.17;84.82
37852;BME280;23691;52.486;4.650;2023-11-19T02:43:49;100597.53;;;14.22;84.57
37852;BME280;23691;52.486;4.650;2023-11-19T02:46:14;100598.41;;;14.23;84.66
37852;BME280;23691;52.486;4.650;2023-11-19T02:48:42;100599.88;;;14.25;84.14
37852;BME280;23691;52.486;4.650;2023-11-19T02:51:15;100601.53;;;14.26;84.05
37852;BME280;23691;52.486;4.650;2023-11-19T02:53:43;100603.16;;;14.27;83.68
37852;BME280;23691;52.486;4.650;2023-11-19T02:56:18;100605.44;;;14.24;83.80
37852;BME280;23691;52.486;4.650;2023-11-19T02:58:57;100609.78;;;14.25;83.70
37852;BME280;23691;52.486;4.650;2023-11-19T03:01:25;100617.84;;;14.25;83.64
37852;BME280;23691;52.486;4.650;2023-11-19T03:04:02;100598.00;;;14.26;83.43
37852;BME280;23691;52.486;4.650;2023-11-19T03:06:27;100604.22;;;14.26;83.20
37852;BME280;23691;52.486;4.650;2023-11-19T03:08:54;100607.72;;;14.27;83.01
37852;BME280;23691;52.486;4.650;2023-11-19T03:11:22;100596.53;;;14.23;82.97
37852;BME280;23691;52.486;4.650;2023-11-19T03:13:48;100599.41;;;14.22;82.76
37852;BME280;23691;52.486;4.650;2023-11-19T03:16:16;100600.06;;;14.24;82.64
37852;BME280;23691;52.486;4.650;2023-11-19T03:18:42;100604.59;;;14.23;82.37
37852;BME280;23691;52.486;4.650;2023-11-19T03:21:10;100595.72;;;14.23;81.92
37852;BME280;23691;52.486;4.650;2023-11-19T03:23:35;100595.50;;;14.24;81.74
37852;BME280;23691;52.486;4.650;2023-11-19T03:26:01;100587.63;;;14.23;81.62
37852;BME280;23691;52.486;4.650;2023-11-19T03:28:33;100599.63;;;14.20;81.44
37852;BME280;23691;52.486;4.650;2023-11-19T03:30:59;100590.69;;;14.20;81.30
37852;BME280;23691;52.486;4.650;2023-11-19T03:33:24;100603.50;;;14.17;81.03
37852;BME280;23691;52.486;4.650;2023-11-19T03:35:53;100591.50;;;14.13;81.34
37852;BME280;23691;52.486;4.650;2023-11-19T03:38:21;100597.03;;;14.12;81.12
37852;BME280;23691;52.486;4.650;2023-11-19T03:40:49;100597.25;;;14.10;81.14
37852;BME280;23691;52.486;4.650;2023-11-19T03:43:16;100597.25;;;14.10;81.30
37852;BME280;23691;52.486;4.650;2023-11-19T03:45:42;100587.50;;;14.09;81.21
37852;BME280;23691;52.486;4.650;2023-11-19T03:48:07;100592.06;;;14.09;81.24
37852;BME280;23691;52.486;4.650;2023-11-19T03:50:35;100598.66;;;14.06;81.25
37852;BME280;23691;52.486;4.650;2023-11-19T03:53:00;100606.09;;;14.04;81.07
37852;BME280;23691;52.486;4.650;2023-11-19T03:55:26;100598.19;;;14.03;81.23
37852;BME280;23691;52.486;4.650;2023-11-19T03:57:51;100604.44;;;14.03;80.90
37852;BME280;23691;52.486;4.650;2023-11-19T04:00:19;100605.44;;;14.02;80.82
37852;BME280;23691;52.486;4.650;2023-11-19T04:02:47;100594.03;;;14.00;80.71
37852;BME280;23691;52.486;4.650;2023-11-19T04:05:16;100595.72;;;14.01;80.39
37852;BME280;23691;52.486;4.650;2023-11-19T04:07:44;100603.53;;;13.96;80.16
37852;BME280;23691;52.486;4.650;2023-11-19T04:10:09;100585.78;;;14.02;79.90
37852;BME280;23691;52.486;4.650;2023-11-19T04:12:35;100597.78;;;13.99;79.73
37852;BME280;23691;52.486;4.650;2023-11-19T04:15:00;100606.34;;;13.88;79.67
37852;BME280;23691;52.486;4.650;2023-11-19T04:17:25;100613.78;;;13.86;79.48
37852;BME280;23691;52.486;4.650;2023-11-19T04:19:51;100613.97;;;13.84;79.63
37852;BME280;23691;52.486;4.650;2023-11-19T04:22:19;100609.41;;;13.85;79.53
37852;BME280;23691;52.486;4.650;2023-11-19T04:24:45;100606.34;;;13.88;79.18
37852;BME280;23691;52.486;4.650;2023-11-19T04:27:10;100608.03;;;13.89;79.28
37852;BME280;23691;52.486;4.650;2023-11-19T04:29:36;100623.31;;;13.88;79.11
37852;BME280;23691;52.486;4.650;2023-11-19T04:32:01;100612.09;;;13.85;79.26
37852;BME280;23691;52.486;4.650;2023-11-19T04:34:29;100620.00;;;13.86;79.36
37852;BME280;23691;52.486;4.650;2023-11-19T04:37:17;100610.72;;;13.89;79.25
37852;BME280;23691;52.486;4.650;2023-11-19T04:39:44;100611.97;;;13.93;79.03
37852;BME280;23691;52.486;4.650;2023-11-19T04:42:14;100619.03;;;13.94;78.97
37852;BME280;23691;52.486;4.650;2023-11-19T04:44:44;100614.66;;;13.93;78.95
37852;BME280;23691;52.486;4.650;2023-11-19T04:47:10;100609.41;;;13.85;79.05
37852;BME280;23691;52.486;4.650;2023-11-19T04:49:42;100606.97;;;13.90;78.76
37852;BME280;23691;52.486;4.650;2023-11-19T04:52:18;100610.06;;;13.87;78.42
37852;BME280;23691;52.486;4.650;2023-11-19T04:54:43;100616.91;;;13.89;78.02
37852;BME280;23691;52.486;4.650;2023-11-19T04:57:09;100619.78;;;13.88;77.79
37852;BME280;23691;52.486;4.650;2023-11-19T04:59:40;100618.13;;;13.87;77.53
37852;BME280;23691;52.486;4.650;2023-11-19T05:02:12;100609.63;;;13.83;77.28
37852;BME280;23691;52.486;4.650;2023-11-19T05:04:43;100605.06;;;13.84;77.18
37852;BME280;23691;52.486;4.650;2023-11-19T05:07:12;100628.44;;;13.83;76.99
37852;BME280;23691;52.486;4.650;2023-11-19T05:09:37;100629.28;;;13.84;77.08
37852;BME280;23691;52.486;4.650;2023-11-19T05:12:03;100613.56;;;13.87;76.81
37852;BME280;23691;52.486;4.650;2023-11-19T05:14:31;100619.78;;;13.88;76.83
37852;BME280;23691;52.486;4.650;2023-11-19T05:16:56;100628.88;;;13.87;76.57
37852;BME280;23691;52.486;4.650;2023-11-19T05:19:24;100620.44;;;13.90;76.33
37852;BME280;23691;52.486;4.650;2023-11-19T05:21:52;100639.25;;;13.90;76.21
37852;BME280;23691;52.486;4.650;2023-11-19T05:24:21;100631.56;;;13.87;76.42
37852;BME280;23691;52.486;4.650;2023-11-19T05:26:46;100643.16;;;13.87;76.57
37852;BME280;23691;52.486;4.650;2023-11-19T05:29:12;100626.84;;;13.89;76.63
37852;BME280;23691;52.486;4.650;2023-11-19T05:31:42;100623.75;;;13.92;77.00
37852;BME280;23691;52.486;4.650;2023-11-19T05:34:07;100620.25;;;13.91;77.02
37852;BME280;23691;52.486;4.650;2023-11-19T05:36:33;100631.66;;;13.93;77.13
37852;BME280;23691;52.486;4.650;2023-11-19T05:38:58;100640.16;;;13.97;77.07
37852;BME280;23691;52.486;4.650;2023-11-19T05:41:31;100647.22;;;13.98;77.02
37852;BME280;23691;52.486;4.650;2023-11-19T05:43:59;100640.06;;;13.90;77.23
37852;BME280;23691;52.486;4.650;2023-11-19T05:46:27;100639.47;;;13.88;77.55
37852;BME280;23691;52.486;4.650;2023-11-19T05:49:03;100645.03;;;13.87;77.45
37852;BME280;23691;52.486;4.650;2023-11-19T05:51:47;100637.78;;;13.87;77.29
37852;BME280;23691;52.486;4.650;2023-11-19T05:54:21;100630.75;;;13.86;77.49
37852;BME280;23691;52.486;4.650;2023-11-19T05:56:49;100626.00;;;13.88;77.39
37852;BME280;23691;52.486;4.650;2023-11-19T05:59:20;100645.16;;;14.00;76.90
37852;BME280;23691;52.486;4.650;2023-11-19T06:01:49;100638.88;;;13.93;76.83
37852;BME280;23691;52.486;4.650;2023-11-19T06:04:18;100638.88;;;13.93;76.89
37852;BME280;23691;52.486;4.650;2023-11-19T06:06:43;100623.84;;;13.99;76.65
37852;BME280;23691;52.486;4.650;2023-11-19T06:09:09;100633.56;;;14.00;76.18
37852;BME280;23691;52.486;4.650;2023-11-19T06:11:38;100624.84;;;13.98;76.42
37852;BME280;23691;52.486;4.650;2023-11-19T06:14:08;100618.56;;;13.90;76.49
37852;BME280;23691;52.486;4.650;2023-11-19T06:16:37;100613.56;;;13.87;76.30
37852;BME280;23691;52.486;4.650;2023-11-19T06:19:05;100610.97;;;13.94;75.88
37852;BME280;23691;52.486;4.650;2023-11-19T06:21:32;100604.69;;;13.87;76.25
37852;BME280;23691;52.486;4.650;2023-11-19T06:23:58;100600.97;;;13.88;75.98
37852;BME280;23691;52.486;4.650;2023-11-19T06:26:27;100620.81;;;13.87;75.95
37852;BME280;23691;52.486;4.650;2023-11-19T06:28:52;100615.25;;;13.88;76.07
37852;BME280;23691;52.486;4.650;2023-11-19T06:31:18;100619.34;;;13.84;76.02
37852;BME280;23691;52.486;4.650;2023-11-19T06:33:43;100612.69;;;13.80;76.02
37852;BME280;23691;52.486;4.650;2023-11-19T06:36:08;100635.22;;;13.79;76.04
37852;BME280;23691;52.486;4.650;2023-11-19T06:38:34;100635.88;;;13.81;76.05
37852;BME280;23691;52.486;4.650;2023-11-19T06:40:59;100621.97;;;13.78;76.16
37852;BME280;23691;52.486;4.650;2023-11-19T06:43:25;100621.66;;;13.87;75.81
37852;BME280;23691;52.486;4.650;2023-11-19T06:45:50;100623.94;;;13.90;75.86
37852;BME280;23691;52.486;4.650;2023-11-19T06:48:24;100635.91;;;13.88;76.29
37852;BME280;23691;52.486;4.650;2023-11-19T06:50:53;100630.53;;;13.88;76.17
37852;BME280;23691;52.486;4.650;2023-11-19T06:53:18;100632.41;;;13.87;76.25
37852;BME280;23691;52.486;4.650;2023-11-19T06:55:44;100638.00;;;13.86;76.52
37852;BME280;23691;52.486;4.650;2023-11-19T06:58:11;100635.00;;;13.81;76.59
37852;BME280;23691;52.486;4.650;2023-11-19T07:00:37;100639.78;;;13.79;76.64
37852;BME280;23691;52.486;4.650;2023-11-19T07:03:02;100646.53;;;13.74;76.79
37852;BME280;23691;52.486;4.650;2023-11-19T07:05:28;100648.41;;;13.74;76.63
37852;BME280;23691;52.486;4.650;2023-11-19T07:07:53;100646.94;;;13.71;76.63
37852;BME280;23691;52.486;4.650;2023-11-19T07:10:19;100647.09;;;13.70;76.93
37852;BME280;23691;52.486;4.650;2023-11-19T07:12:45;100650.00;;;13.68;76.82
37852;BME280;23691;52.486;4.650;2023-11-19T07:15:10;100654.16;;;13.71;76.74
37852;BME280;23691;52.486;4.650;2023-11-19T07:17:35;100644.25;;;13.71;76.70
37852;BME280;23691;52.486;4.650;2023-11-19T07:20:01;100648.41;;;13.74;76.70
37852;BME280;23691;52.486;4.650;2023-11-19T07:22:27;100657.94;;;13.77;76.60
37852;BME280;23691;52.486;4.650;2023-11-19T07:24:54;100654.22;;;13.78;76.57
37852;BME280;23691;52.486;4.650;2023-11-19T07:27:19;100657.81;;;13.85;76.21
37852;BME280;23691;52.486;4.650;2023-11-19T07:29:45;100658.09;;;13.90;75.97
37852;BME280;23691;52.486;4.650;2023-11-19T07:32:10;100659.75;;;13.91;75.95
37852;BME280;23691;52.486;4.650;2023-11-19T07:34:36;100655.47;;;13.96;76.02
37852;BME280;23691;52.486;4.650;2023-11-19T07:37:01;100651.13;;;13.95;76.02
37852;BME280;23691;52.486;4.650;2023-11-19T07:39:28;100662.06;;;13.94;75.93
37852;BME280;23691;52.486;4.650;2023-11-19T07:41:53;100636.81;;;13.95;75.99
37852;BME280;23691;52.486;4.650;2023-11-19T07:44:19;100643.94;;;14.03;75.44
37852;BME280;23691;52.486;4.650;2023-11-19T07:46:44;100653.94;;;14.09;75.02
37852;BME280;23691;52.486;4.650;2023-11-19T07:49:10;100646.81;;;14.01;75.26
37852;BME280;23691;52.486;4.650;2023-11-19T07:51:36;100652.38;;;14.00;75.13
37852;BME280;23691;52.486;4.650;2023-11-19T07:54:01;100654.50;;;14.04;75.13
37852;BME280;23691;52.486;4.650;2023-11-19T07:56:27;100646.03;;;14.07;75.05
37852;BME280;23691;52.486;4.650;2023-11-19T07:58:52;100643.00;;;14.10;74.70
37852;BME280;23691;52.486;4.650;2023-11-19T08:01:17;100647.16;;;14.13;74.44
37852;BME280;23691;52.486;4.650;2023-11-19T08:03:43;100640.31;;;14.10;74.53
37852;BME280;23691;52.486;4.650;2023-11-19T08:06:08;100658.41;;;14.02;74.70
37852;BME280;23691;52.486;4.650;2023-11-19T08:08:33;100637.78;;;14.09;74.75
37852;BME280;23691;52.486;4.650;2023-11-19T08:11:00;100646.81;;;14.01;74.83
37852;BME280;23691;52.486;4.650;2023-11-19T08:13:25;100645.59;;;14.04;74.75
37852;BME280;23691;52.486;4.650;2023-11-19T08:15:51;100642.91;;;14.04;74.80
37852;BME280;23691;52.486;4.650;2023-11-19T08:18:16;100651.16;;;14.02;74.86
37852;BME280;23691;52.486;4.650;2023-11-19T08:20:43;100652.63;;;14.05;74.37
37852;BME280;23691;52.486;4.650;2023-11-19T08:23:09;100662.41;;;14.06;74.67
37852;BME280;23691;52.486;4.650;2023-11-19T08:25:35;100657.44;;;14.09;74.33
37852;BME280;23691;52.486;4.650;2023-11-19T08:28:00;100674.25;;;14.11;74.33
37852;BME280;23691;52.486;4.650;2023-11-19T08:30:26;100663.09;;;14.14;74.08
37852;BME280;23691;52.486;4.650;2023-11-19T08:32:52;100646.38;;;14.19;74.00
37852;BME280;23691;52.486;4.650;2023-11-19T08:35:17;100659.91;;;14.26;73.83
37852;BME280;23691;52.486;4.650;2023-11-19T08:37:42;100669.09;;;14.38;73.59
37852;BME280;23691;52.486;4.650;2023-11-19T08:40:08;100670.00;;;14.45;73.41
37852;BME280;23691;52.486;4.650;2023-11-19T08:42:34;100658.72;;;14.56;73.43
37852;BME280;23691;52.486;4.650;2023-11-19T08:45:00;100675.56;;;14.65;72.86
37852;BME280;23691;52.486;4.650;2023-11-19T08:47:25;100665.38;;;14.60;72.89
37852;BME280;23691;52.486;4.650;2023-11-19T08:49:53;100661.47;;;14.63;72.97
37852;BME280;23691;52.486;4.650;2023-11-19T08:52:20;100663.13;;;14.64;72.72
37852;BME280;23691;52.486;4.650;2023-11-19T08:54:45;100669.41;;;14.71;72.57
37852;BME280;23691;52.486;4.650;2023-11-19T08:57:10;100667.84;;;14.55;72.56
37852;BME280;23691;52.486;4.650;2023-11-19T08:59:35;100666.78;;;14.56;72.83
37852;BME280;23691;52.486;4.650;2023-11-19T09:02:03;100666.53;;;14.51;72.91
37852;BME280;23691;52.486;4.650;2023-11-19T09:04:28;100661.97;;;14.52;73.17
37852;BME280;23691;52.486;4.650;2023-11-19T09:06:53;100650.00;;;14.54;73.26
37852;BME280;23691;52.486;4.650;2023-11-19T09:09:20;100667.84;;;14.55;73.08
37852;BME280;23691;52.486;4.650;2023-11-19T09:11:45;100660.84;;;14.61;73.14
37852;BME280;23691;52.486;4.650;2023-11-19T09:14:10;100652.34;;;14.64;72.48
37852;BME280;23691;52.486;4.650;2023-11-19T09:16:35;100648.19;;;14.62;72.21
37852;BME280;23691;52.486;4.650;2023-11-19T09:19:01;100655.84;;;14.58;72.53
37852;BME280;23691;52.486;4.650;2023-11-19T09:21:27;100660.00;;;14.60;72.57
37852;BME280;23691;52.486;4.650;2023-11-19T09:23:57;100653.22;;;14.65;72.32
37852;BME280;23691;52.486;4.650;2023-11-19T09:26:22;100663.38;;;14.69;72.26
37852;BME280;23691;52.486;4.650;2023-11-19T09:28:47;100652.00;;;14.74;72.25
37852;BME280;23691;52.486;4.650;2023-11-19T09:31:16;100639.19;;;14.76;72.32
37852;BME280;23691;52.486;4.650;2023-11-19T09:33:42;100661.19;;;14.79;72.16
37852;BME280;23691;52.486;4.650;2023-11-19T09:36:07;100657.63;;;14.79;72.20
37852;BME280;23691;52.486;4.650;2023-11-19T09:38:33;100653.72;;;14.81;72.18
37852;BME280;23691;52.486;4.650;2023-11-19T09:40:58;100657.63;;;14.79;72.38
37852;BME280;23691;52.486;4.650;2023-11-19T09:43:24;100652.06;;;14.80;71.94
37852;BME280;23691;52.486;4.650;2023-11-19T09:45:53;100645.63;;;14.81;72.18
37852;BME280;23691;52.486;4.650;2023-11-19T09:48:19;100642.94;;;14.81;72.19
37852;BME280;23691;52.486;4.650;2023-11-19T09:50:46;100647.13;;;14.84;72.19
37852;BME280;23691;52.486;4.650;2023-11-19T09:53:12;100660.88;;;14.96;71.84
37852;BME280;23691;52.486;4.650;2023-11-19T09:55:37;100652.25;;;15.07;71.39
37852;BME280;23691;52.486;4.650;2023-11-19T09:58:02;100645.78;;;15.01;71.81
37852;BME280;23691;52.486;4.650;2023-11-19T10:00:28;100663.84;;;15.08;71.60
37852;BME280;23691;52.486;4.650;2023-11-19T10:02:58;100652.72;;;15.17;71.46
37852;BME280;23691;52.486;4.650;2023-11-19T10:05:24;100651.06;;;15.16;71.65
37852;BME280;23691;52.486;4.650;2023-11-19T10:07:49;100647.50;;;15.16;71.06
37852;BME280;23691;52.486;4.650;2023-11-19T10:10:17;100657.66;;;15.14;71.08
37852;BME280;23691;52.486;4.650;2023-11-19T10:12:45;100644.75;;;15.02;71.26
37852;BME280;23691;52.486;4.650;2023-11-19T10:15:22;100652.00;;;15.02;70.50
37852;BME280;23691;52.486;4.650;2023-11-19T10:17:49;100650.72;;;14.98;70.45
37852;BME280;23691;52.486;4.650;2023-11-19T10:20:15;100656.91;;;14.92;70.56
37852;BME280;23691;52.486;4.650;2023-11-19T10:22:40;100642.16;;;14.88;70.48
37852;BME280;23691;52.486;4.650;2023-11-19T10:25:27;100640.94;;;14.90;70.53
37852;BME280;23691;52.486;4.650;2023-11-19T10:27:52;100649.03;;;14.90;70.61
37852;BME280;23691;52.486;4.650;2023-11-19T10:30:25;100657.59;;;15.00;70.65
37852;BME280;23691;52.486;4.650;2023-11-19T10:33:04;100646.25;;;15.12;70.19
37852;BME280;23691;52.486;4.650;2023-11-19T10:35:30;100651.44;;;15.13;70.39
37852;BME280;23691;52.486;4.650;2023-11-19T10:37:56;100649.81;;;15.19;69.84
37852;BME280;23691;52.486;4.650;2023-11-19T10:40:23;100649.19;;;15.17;69.44
37852;BME280;23691;52.486;4.650;2023-11-19T10:43:02;100644.19;;;15.14;69.16
37852;BME280;23691;52.486;4.650;2023-11-19T10:45:28;100645.66;;;15.16;69.07
37852;BME280;23691;52.486;4.650;2023-11-19T10:47:53;100642.75;;;15.18;68.95
37852;BME280;23691;52.486;4.650;2023-11-19T10:50:21;100640.06;;;15.18;68.94
37852;BME280;23691;52.486;4.650;2023-11-19T10:52:48;100645.03;;;15.21;68.71
37852;BME280;23691;52.486;4.650;2023-11-19T10:55:15;100623.88;;;15.18;68.86
37852;BME280;23691;52.486;4.650;2023-11-19T10:57:43;100652.72;;;15.17;68.88
37852;BME280;23691;52.486;4.650;2023-11-19T11:00:12;100635.72;;;15.17;68.72
37852;BME280;23691;52.486;4.650;2023-11-19T11:02:40;100647.91;;;15.13;68.88
37852;BME280;23691;52.486;4.650;2023-11-19T11:05:07;100661.38;;;15.13;68.82
37852;BME280;23691;52.486;4.650;2023-11-19T11:07:33;100647.31;;;15.17;68.67
37852;BME280;23691;52.486;4.650;2023-11-19T11:09:59;100649.38;;;15.15;69.08
37852;BME280;23691;52.486;4.650;2023-11-19T11:12:25;100648.53;;;15.15;69.03
37852;BME280;23691;52.486;4.650;2023-11-19T11:14:50;100648.34;;;15.16;68.83
37852;BME280;23691;52.486;4.650;2023-11-19T11:17:17;100641.31;;;15.22;68.79
37852;BME280;23691;52.486;4.650;2023-11-19T11:19:42;100632.19;;;15.23;69.00
37852;BME280;23691;52.486;4.650;2023-11-19T11:22:08;100634.72;;;15.24;68.91
37852;BME280;23691;52.486;4.650;2023-11-19T11:24:38;100636.22;;;15.34;68.46
37852;BME280;23691;52.486;4.650;2023-11-19T11:37:50;100626.25;;;15.34;67.40
37852;BME280;23691;52.486;4.650;2023-11-19T11:40:19;100625.84;;;15.37;67.57
37852;BME280;23691;52.486;4.650;2023-11-19T11:42:45;100620.44;;;15.37;67.62
37852;BME280;23691;52.486;4.650;2023-11-19T11:45:11;100631.47;;;15.42;67.22
37852;BME280;23691;52.486;4.650;2023-11-19T11:50:09;100617.97;;;15.42;67.42
37852;BME280;23691;52.486;4.650;2023-11-19T11:55:23;100632.72;;;15.46;67.42
37852;BME280;23691;52.486;4.650;2023-11-19T11:57:48;100624.84;;;15.45;67.32
37852;BME280;23691;52.486;4.650;2023-11-19T12:00:30;100625.91;;;15.51;67.16
37852;BME280;23691;52.486;4.650;2023-11-19T12:03:00;100632.53;;;15.55;66.99
37852;BME280;23691;52.486;4.650;2023-11-19T12:05:31;100612.88;;;15.61;67.20
37852;BME280;23691;52.486;4.650;2023-11-19T12:08:00;100604.59;;;15.69;67.13
37852;BME280;23691;52.486;4.650;2023-11-19T12:10:29;100607.69;;;15.66;66.95
37852;BME280;23691;52.486;4.650;2023-11-19T12:13:00;100609.94;;;15.62;66.88
37852;BME280;23691;52.486;4.650;2023-11-19T12:15:26;100611.41;;;15.65;66.23
37852;BME280;23691;52.486;4.650;2023-11-19T12:17:53;100609.75;;;15.64;66.26
37852;BME280;23691;52.486;4.650;2023-11-19T12:20:27;100604.78;;;15.61;66.65
37852;BME280;23691;52.486;4.650;2023-11-19T12:22:58;100612.47;;;15.64;66.11
37852;BME280;23691;52.486;4.650;2023-11-19T12:44:09;100618.03;;;15.56;66.37
37852;BME280;23691;52.486;4.650;2023-11-19T12:46:36;100623.03;;;15.59;66.70
37852;BME280;23691;52.486;4.650;2023-11-19T12:49:17;100618.03;;;15.56;66.41
37852;BME280;23691;52.486;4.650;2023-11-19T12:51:57;100614.31;;;15.57;66.67
37852;BME280;23691;52.486;4.650;2023-11-19T12:57:18;100621.34;;;15.51;67.42
37852;BME280;23691;52.486;4.650;2023-11-19T12:59:54;100609.50;;;15.52;67.67
37852;BME280;23691;52.486;4.650;2023-11-19T13:02:22;100616.59;;;15.53;67.66
37852;BME280;23691;52.486;4.650;2023-11-19T13:04:54;100611.19;;;15.53;67.46
37852;BME280;23691;52.486;4.650;2023-11-19T13:07:27;100617.81;;;15.57;67.29
37852;BME280;23691;52.486;4.650;2023-11-19T13:10:00;100613.88;;;15.60;67.23
37852;BME280;23691;52.486;4.650;2023-11-19T13:12:26;100615.56;;;15.67;67.34
37852;BME280;23691;52.486;4.650;2023-11-19T13:14:51;100615.19;;;15.77;66.86
37852;BME280;23691;52.486;4.650;2023-11-19T13:17:18;100613.78;;;15.88;66.71
37852;BME280;23691;52.486;4.650;2023-11-19T13:19:46;100619.63;;;15.98;66.29
37852;BME280;23691;52.486;4.650;2023-11-19T13:22:12;100610.47;;;15.99;66.09
37852;BME280;23691;52.486;4.650;2023-11-19T13:24:37;100605.72;;;16.01;65.88
37852;BME280;23691;52.486;4.650;2023-11-19T13:27:06;100609.03;;;16.03;65.91
37852;BME280;23691;52.486;4.650;2023-11-19T13:29:31;100611.09;;;16.01;65.97
37852;BME280;23691;52.486;4.650;2023-11-19T13:32:03;100606.13;;;15.98;65.59